Terminal Aerodrome Forecast
Issued by NWS

Home | Current Version | Previous Version | Text Only | Print | Product List | Glossary On
Versions: 1 2 3 4 5 6 7 8 9 10 11 12 13 14 15 16
000
FTUS45 KGGW 011100
TAFSDY
TAF
KSDY 011123Z 0112/0212 30018KT P6SM OVC020
     FM011800 29017G28KT P6SM OVC035
     FM020000 29010KT P6SM SCT060
     FM020600 VRB05KT P6SM SCT080
      AMD LTD TO CLD VIS AND WIND=

USA.gov is the U.S. government's official web portal to all federal, state and local government web resources and services.